Time;durP1;ratioP1;P1;durP2;ratioP2;P2;SDS_P1;SDS_P2;PMS_P1;PMS_P2;Temp;Humidity;BMP_temperature;BMP_pressure;BME280_temperature;BME280_humidity;BME280_pressure;Samples;Min_cycle;Max_cycle;Signal;HPM_P1;HPM_P2
2021/05/25 00:01:56;;;;;;;24.50;17.05;;;;;;;8.70;100.00;100677.38;3594644;39;20090;-64
2021/05/25 00:04:22;;;;;;;22.98;16.10;;;;;;;8.70;100.00;100682.75;3593885;39;20036;-62
2021/05/25 00:06:48;;;;;;;23.95;16.45;;;;;;;8.72;100.00;100675.41;3595902;39;20118;-62
2021/05/25 00:09:14;;;;;;;25.52;17.52;;;;;;;8.65;100.00;100674.22;3595634;39;20387;-64
2021/05/25 00:11:41;;;;;;;26.02;16.42;;;;;;;8.65;100.00;100676.06;3591071;39;20068;-62
2021/05/25 00:14:07;;;;;;;24.95;16.67;;;;;;;8.64;100.00;100669.81;3586279;39;20044;-63
2021/05/25 00:16:33;;;;;;;26.00;16.00;;;;;;;8.52;100.00;100674.38;3589144;39;20048;-63
2021/05/25 00:18:59;;;;;;;25.85;17.70;;;;;;;8.51;100.00;100671.81;3590056;40;20064;-64
2021/05/25 00:21:25;;;;;;;23.63;17.08;;;;;;;8.43;100.00;100677.78;3591545;39;20046;-62
2021/05/25 00:23:51;;;;;;;25.13;16.88;;;;;;;8.35;100.00;100673.06;3590326;39;20052;-62
2021/05/25 00:26:17;;;;;;;26.83;17.50;;;;;;;8.34;100.00;100670.53;3591021;39;20438;-63
2021/05/25 00:28:44;;;;;;;27.77;17.98;;;;;;;8.36;100.00;100674.78;3592249;39;20048;-62
2021/05/25 00:31:10;;;;;;;29.27;18.50;;;;;;;8.33;100.00;100677.72;3590383;39;20049;-62
2021/05/25 00:33:36;;;;;;;24.63;17.23;;;;;;;8.29;100.00;100678.94;3591142;39;20299;-63
2021/05/25 00:36:02;;;;;;;31.00;19.35;;;;;;;8.32;100.00;100688.53;3589948;39;20433;-62
2021/05/25 00:38:28;;;;;;;35.58;20.83;;;;;;;8.33;100.00;100684.91;3589819;39;20593;-62
2021/05/25 00:40:54;;;;;;;33.25;20.20;;;;;;;8.32;100.00;100699.28;3589618;39;20335;-63
2021/05/25 00:43:21;;;;;;;34.05;21.60;;;;;;;8.31;100.00;100693.06;3589137;39;20148;-62
2021/05/25 00:45:48;;;;;;;36.70;22.48;;;;;;;8.30;100.00;100695.88;3590108;39;20055;-63
2021/05/25 00:48:14;;;;;;;32.30;21.38;;;;;;;8.37;100.00;100697.94;3590776;39;20896;-64
2021/05/25 00:50:40;;;;;;;34.80;20.90;;;;;;;8.34;100.00;100690.13;3590277;39;20042;-63
2021/05/25 00:53:06;;;;;;;32.30;22.25;;;;;;;8.35;100.00;100699.06;3590140;39;20058;-64
2021/05/25 00:55:34;;;;;;;30.45;21.30;;;;;;;8.46;100.00;100703.56;3593030;39;20044;-64
2021/05/25 00:58:02;;;;;;;32.97;20.73;;;;;;;8.37;100.00;100705.97;3594442;39;20052;-62
2021/05/25 01:00:32;;;;;;;34.17;20.40;;;;;;;8.29;100.00;100705.75;3594784;39;20395;-63
2021/05/25 01:02:59;;;;;;;31.02;20.83;;;;;;;8.29;100.00;100711.13;3595202;39;20060;-63
2021/05/25 01:05:25;;;;;;;25.08;18.30;;;;;;;8.26;100.00;100706.03;3595173;39;20044;-63
2021/05/25 01:07:51;;;;;;;25.38;17.55;;;;;;;8.21;100.00;100705.53;3595270;39;20043;-64
2021/05/25 01:10:25;;;;;;;27.80;16.45;;;;;;;8.22;100.00;100715.28;3593320;39;20404;-64
2021/05/25 01:12:54;;;;;;;23.30;17.35;;;;;;;8.17;100.00;100714.78;3594118;39;20060;-62
2021/05/25 01:15:21;;;;;;;;;;;;;;;8.21;100.00;100713.56;3596095;39;20058;-62
2021/05/25 01:17:47;;;;;;;22.20;15.98;;;;;;;8.17;100.00;100718.34;3595204;39;20005;-62
2021/05/25 01:20:15;;;;;;;23.77;16.13;;;;;;;8.13;100.00;100726.75;3593782;39;20063;-63
2021/05/25 01:22:42;;;;;;;24.23;14.57;;;;;;;8.07;100.00;100720.06;3591356;39;20060;-62
2021/05/25 01:25:11;;;;;;;19.88;14.02;;;;;;;8.15;100.00;100722.13;3595289;39;20052;-62
2021/05/25 01:27:37;;;;;;;17.20;12.33;;;;;;;8.03;100.00;100719.44;3595968;39;20074;-62
2021/05/25 01:30:04;;;;;;;17.58;11.43;;;;;;;7.99;100.00;100726.00;3595048;39;20307;-61
2021/05/25 01:32:30;;;;;;;15.57;11.02;;;;;;;7.93;100.00;100726.50;3595555;39;20054;-61
2021/05/25 01:34:56;;;;;;;12.88;9.30;;;;;;;7.80;100.00;100729.31;3595924;39;20044;-62
2021/05/25 01:37:22;;;;;;;11.85;8.77;;;;;;;7.77;100.00;100721.50;3594562;39;20056;-63
2021/05/25 01:39:54;;;;;;;12.52;7.57;;;;;;;7.68;100.00;100720.41;3595612;39;20072;-63
2021/05/25 01:42:20;;;;;;;10.82;7.07;;;;;;;7.69;100.00;100722.13;3595795;39;20064;-63
2021/05/25 01:44:46;;;;;;;9.95;6.97;;;;;;;7.70;100.00;100728.34;3595379;39;20040;-63
2021/05/25 01:47:12;;;;;;;9.73;6.50;;;;;;;7.68;100.00;100727.59;3595408;39;20052;-62
2021/05/25 01:49:39;;;;;;;8.02;6.10;;;;;;;7.60;100.00;100727.38;3594663;39;20052;-62
2021/05/25 01:52:06;;;;;;;7.85;5.18;;;;;;;7.60;100.00;100730.03;3588127;39;20051;-62
2021/05/25 01:54:32;;;;;;;8.02;4.88;;;;;;;7.55;100.00;100725.03;3595242;39;20080;-62
2021/05/25 01:56:59;;;;;;;7.10;4.28;;;;;;;7.42;100.00;100735.84;3595899;39;20103;-63
2021/05/25 01:59:25;;;;;;;5.55;4.57;;;;;;;7.43;100.00;100734.88;3594875;39;20052;-62
2021/05/25 02:01:50;;;;;;;6.10;3.80;;;;;;;7.45;100.00;100737.41;3596001;39;20371;-62
2021/05/25 02:04:16;;;;;;;5.40;3.60;;;;;;;7.41;100.00;100730.63;3594689;39;20124;-63
2021/05/25 02:06:42;;;;;;;4.82;3.45;;;;;;;7.42;100.00;100733.19;3596063;39;20052;-62
2021/05/25 02:09:09;;;;;;;5.88;3.92;;;;;;;7.32;100.00;100733.03;3595202;39;20056;-63
2021/05/25 02:11:36;;;;;;;6.18;4.22;;;;;;;7.37;100.00;100738.03;3594648;39;20036;-63
2021/05/25 02:14:04;;;;;;;4.50;3.80;;;;;;;7.37;100.00;100740.69;3595090;39;20411;-63
2021/05/25 02:16:30;;;;;;;6.30;3.78;;;;;;;7.30;100.00;100739.47;3595092;39;20048;-63
2021/05/25 02:18:56;;;;;;;7.93;3.70;;;;;;;7.40;100.00;100740.47;3594668;39;20050;-62
2021/05/25 02:21:22;;;;;;;4.68;3.60;;;;;;;7.44;100.00;100743.78;3596876;39;20145;-64
2021/05/25 02:23:49;;;;;;;6.07;3.55;;;;;;;7.39;100.00;100740.56;3598110;39;20091;-65
2021/05/25 02:26:16;;;;;;;5.18;3.55;;;;;;;7.44;100.00;100741.09;3598185;39;20434;-63
2021/05/25 02:28:42;;;;;;;9.18;4.28;;;;;;;7.40;100.00;100743.13;3598021;39;20044;-64
2021/05/25 02:31:10;;;;;;;6.22;4.45;;;;;;;7.35;100.00;100750.69;3597899;39;20161;-63
2021/05/25 02:33:36;;;;;;;6.13;4.00;;;;;;;7.46;100.00;100741.81;3597982;39;20068;-63
2021/05/25 02:36:02;;;;;;;9.70;4.80;;;;;;;7.33;100.00;100745.44;3598479;39;20054;-65
2021/05/25 02:38:30;;;;;;;9.10;5.03;;;;;;;7.29;100.00;100753.84;3598268;39;20054;-63
2021/05/25 02:40:56;;;;;;;6.97;4.90;;;;;;;7.34;100.00;100746.28;3598210;39;20052;-63
2021/05/25 02:43:24;;;;;;;9.25;5.93;;;;;;;7.29;100.00;100738.63;3597019;39;20421;-63
2021/05/25 02:45:52;;;;;;;11.25;5.78;;;;;;;7.33;100.00;100745.44;3599058;39;20096;-63
2021/05/25 02:48:19;;;;;;;9.40;6.30;;;;;;;7.32;100.00;100754.44;3598125;39;20064;-62
2021/05/25 02:50:46;;;;;;;14.30;7.25;;;;;;;7.31;100.00;100752.72;3598586;39;20137;-64
2021/05/25 02:53:13;;;;;;;10.75;7.35;;;;;;;7.35;100.00;100748.84;3596746;39;20060;-64
2021/05/25 02:55:40;;;;;;;12.35;8.20;;;;;;;7.34;100.00;100757.84;3598448;39;20051;-62
2021/05/25 02:58:10;;;;;;;14.57;9.63;;;;;;;7.35;100.00;100764.91;3598218;39;20183;-63
2021/05/25 03:00:37;;;;;;;18.25;11.10;;;;;;;7.30;100.00;100761.75;3598361;39;20466;-63
2021/05/25 03:03:04;;;;;;;17.30;10.85;;;;;;;7.31;100.00;100760.75;3597364;39;20060;-63
2021/05/25 03:05:30;;;;;;;16.88;11.95;;;;;;;7.32;100.00;100762.47;3599042;39;20052;-62
2021/05/25 03:10:27;;;;;;;21.40;13.73;;;;;;;7.35;100.00;100764.91;3643918;22;20064;-63
2021/05/25 03:12:53;;;;;;;24.37;13.67;;;;;;;7.28;100.00;100763.69;3613087;39;20032;-63
2021/05/25 03:15:23;;;;;;;24.55;14.57;;;;;;;7.21;100.00;100764.25;3613158;39;20317;-62
2021/05/25 03:17:49;;;;;;;;;;;;;;;7.18;100.00;100765.34;3612852;39;20103;-63
2021/05/25 03:20:16;;;;;;;27.98;16.02;;;;;;;7.12;100.00;100763.13;3613252;39;20020;-63
2021/05/25 03:22:43;;;;;;;25.42;15.50;;;;;;;7.11;100.00;100756.06;3609972;39;20412;-64
2021/05/25 03:25:12;;;;;;;22.45;16.30;;;;;;;7.04;100.00;100761.06;3612934;39;20046;-63
2021/05/25 03:27:39;;;;;;;25.27;15.13;;;;;;;7.05;100.00;100767.25;3609702;39;20413;-64
2021/05/25 03:30:08;;;;;;;31.23;18.30;;;;;;;6.97;100.00;100766.00;3611937;39;20300;-63
2021/05/25 03:32:34;;;;;;;;;;;;;;;6.97;100.00;100768.66;3610130;39;20085;-63
2021/05/25 03:35:00;;;;;;;31.20;18.30;;;;;;;6.86;100.00;100774.00;3609491;39;20302;-63
2021/05/25 03:37:26;;;;;;;29.85;19.00;;;;;;;6.91;100.00;100776.31;3610949;39;20048;-63
2021/05/25 03:39:53;;;;;;;28.45;17.67;;;;;;;6.90;100.00;100774.59;3610821;39;20080;-64
2021/05/25 03:42:19;;;;;;;31.38;18.73;;;;;;;6.87;100.00;100781.03;3610576;39;20052;-64
2021/05/25 03:44:46;;;;;;;28.13;16.67;;;;;;;6.78;100.00;100782.56;3610216;39;20152;-63
2021/05/25 03:47:12;;;;;;;28.92;17.25;;;;;;;6.77;100.00;100780.88;3609585;39;20420;-65
2021/05/25 03:49:38;;;;;;;24.08;16.90;;;;;;;6.78;100.00;100787.06;3609524;39;20120;-64
2021/05/25 03:52:05;;;;;;;23.80;15.52;;;;;;;6.76;100.00;100792.53;3610607;39;20063;-64
2021/05/25 03:54:35;;;;;;;27.42;16.20;;;;;;;6.71;100.00;100788.50;3609139;39;20051;-63
2021/05/25 03:57:08;;;;;;;28.17;17.20;;;;;;;6.70;100.00;100784.09;3611140;39;20542;-64
2021/05/25 03:59:33;;;;;;;29.27;17.60;;;;;;;6.65;100.00;100788.00;3611203;39;20410;-63
2021/05/25 04:01:59;;;;;;;26.13;15.70;;;;;;;6.63;100.00;100789.91;3611309;39;20168;-63
2021/05/25 04:04:25;;;;;;;28.23;16.58;;;;;;;6.61;100.00;100789.16;3632596;22;20068;-63
2021/05/25 04:06:51;;;;;;;24.05;17.17;;;;;;;6.55;100.00;100784.28;3589324;40;20311;-65
2021/05/25 04:09:17;;;;;;;23.73;16.30;;;;;;;6.61;100.00;100791.84;3589138;40;20045;-64
2021/05/25 04:11:43;;;;;;;27.15;19.10;;;;;;;6.54;100.00;100795.09;3591053;40;20288;-64
2021/05/25 04:14:10;;;;;;;27.98;16.92;;;;;;;6.50;100.00;100786.41;3590189;40;20060;-64
2021/05/25 04:16:36;;;;;;;25.33;15.70;;;;;;;6.47;100.00;100789.31;3591340;40;20415;-63
2021/05/25 04:19:02;;;;;;;25.35;16.42;;;;;;;6.46;100.00;100792.94;3588323;40;20072;-64
2021/05/25 04:21:28;;;;;;;27.88;16.73;;;;;;;6.49;100.00;100798.06;3589662;40;20325;-63
2021/05/25 04:23:54;;;;;;;26.00;15.40;;;;;;;6.46;100.00;100798.28;3590638;40;20054;-63
2021/05/25 04:26:20;;;;;;;24.10;14.82;;;;;;;6.51;100.00;100806.84;3589597;40;20423;-65
2021/05/25 04:28:46;;;;;;;28.02;15.38;;;;;;;6.51;100.00;100801.50;3589929;40;20063;-63
2021/05/25 04:31:13;;;;;;;20.58;15.13;;;;;;;6.49;100.00;100800.75;3589286;40;20123;-63
2021/05/25 04:33:39;;;;;;;21.95;13.98;;;;;;;6.54;100.00;100800.44;3587305;40;20040;-63
2021/05/25 04:36:05;;;;;;;24.75;14.82;;;;;;;6.56;100.00;100807.34;3589959;40;20039;-63
2021/05/25 04:38:31;;;;;;;20.60;14.02;;;;;;;6.63;100.00;100800.59;3590182;40;20083;-65
2021/05/25 04:40:57;;;;;;;19.67;13.88;;;;;;;6.80;100.00;100812.75;3589450;40;20075;-64
2021/05/25 04:43:23;;;;;;;21.30;13.70;;;;;;;7.23;100.00;100813.19;3587950;40;20134;-62
2021/05/25 04:45:49;;;;;;;19.15;13.05;;;;;;;7.64;100.00;100812.72;3590911;40;20064;-65
2021/05/25 04:48:17;;;;;;;16.08;11.95;;;;;;;7.87;100.00;100812.75;3588651;40;20064;-63
2021/05/25 04:50:43;;;;;;;18.58;12.48;;;;;;;8.37;100.00;100812.41;3591364;40;20044;-64
2021/05/25 04:53:09;;;;;;;14.85;10.60;;;;;;;8.75;100.00;100812.00;3587785;40;20044;-63
2021/05/25 04:55:36;;;;;;;15.32;10.40;;;;;;;9.77;100.00;100819.63;3590517;40;20084;-63
2021/05/25 04:58:02;;;;;;;12.07;9.45;;;;;;;9.96;100.00;100818.03;3589051;40;20048;-62
2021/05/25 05:00:29;;;;;;;15.52;8.63;;;;;;;9.75;100.00;100828.81;3588445;40;20296;-63
2021/05/25 05:02:56;;;;;;;12.93;9.10;;;;;;;8.20;100.00;100821.78;3588680;40;20300;-63
2021/05/25 05:05:23;;;;;;;12.25;9.38;;;;;;;7.75;100.00;100827.09;3591131;40;20044;-63
2021/05/25 05:07:50;;;;;;;15.48;9.60;;;;;;;7.74;100.00;100817.34;3588771;40;20139;-63
2021/05/25 05:10:17;;;;;;;15.60;10.38;;;;;;;7.69;100.00;100831.94;3589199;40;20040;-65
2021/05/25 05:12:43;;;;;;;14.20;9.32;;;;;;;7.72;100.00;100821.00;3588671;40;20084;-63
2021/05/25 05:15:10;;;;;;;15.60;9.98;;;;;;;7.50;100.00;100820.94;3660897;23;20049;-63
2021/05/25 05:17:37;;;;;;;16.75;12.13;;;;;;;7.31;100.00;100827.69;3581466;40;20045;-65
2021/05/25 05:20:04;;;;;;;20.15;12.30;;;;;;;7.41;100.00;100835.06;3581111;40;20415;-64
2021/05/25 05:22:31;;;;;;;16.27;11.43;;;;;;;7.45;100.00;100826.66;3580753;40;20088;-63
2021/05/25 05:24:57;;;;;;;18.70;12.93;;;;;;;7.45;100.00;100829.34;3580947;40;20055;-64
2021/05/25 05:27:23;;;;;;;15.82;11.40;;;;;;;7.59;100.00;100825.59;3580693;40;20048;-63
2021/05/25 05:29:49;;;;;;;17.23;11.35;;;;;;;7.66;100.00;100826.84;3581119;40;20122;-63
2021/05/25 05:32:15;;;;;;;18.77;13.23;;;;;;;7.68;100.00;100819.53;3580815;40;20087;-63
2021/05/25 05:34:41;;;;;;;18.52;13.23;;;;;;;7.67;100.00;100825.88;3581091;40;20077;-63
2021/05/25 05:37:07;;;;;;;20.00;12.32;;;;;;;7.84;100.00;100829.91;3579921;40;20078;-63
2021/05/25 05:39:34;;;;;;;18.58;12.30;;;;;;;7.91;100.00;100838.34;3580441;39;20051;-64
2021/05/25 05:42:00;;;;;;;17.35;12.50;;;;;;;7.96;100.00;100828.09;3579959;40;20056;-64
2021/05/25 05:44:26;;;;;;;18.38;12.73;;;;;;;7.91;100.00;100829.47;3579754;40;20338;-64
2021/05/25 05:46:52;;;;;;;18.88;13.15;;;;;;;7.95;100.00;100837.13;3578531;40;20063;-64
2021/05/25 05:49:18;;;;;;;19.85;14.15;;;;;;;8.07;100.00;100836.16;3577656;40;20152;-65
2021/05/25 05:51:44;;;;;;;17.23;13.00;;;;;;;8.07;100.00;100840.69;3580129;40;20048;-65
2021/05/25 05:54:12;;;;;;;18.30;12.65;;;;;;;8.25;100.00;100833.00;3581147;39;20060;-66
2021/05/25 05:56:38;;;;;;;17.58;12.55;;;;;;;8.19;100.00;100836.19;3579307;39;20063;-63
2021/05/25 05:59:05;;;;;;;16.75;12.85;;;;;;;8.23;100.00;100845.69;3580647;40;20159;-64
2021/05/25 06:01:31;;;;;;;17.45;12.85;;;;;;;8.24;100.00;100842.00;3579747;40;20041;-65
2021/05/25 06:03:57;;;;;;;16.13;12.48;;;;;;;8.59;100.00;100847.28;3580888;40;20047;-64
2021/05/25 06:06:22;;;;;;;20.30;13.05;;;;;;;8.37;100.00;100842.75;3579401;40;20033;-64
2021/05/25 06:08:48;;;;;;;22.38;12.73;;;;;;;8.72;100.00;100839.09;3579875;40;20049;-65
2021/05/25 06:11:14;;;;;;;19.33;12.10;;;;;;;8.69;100.00;100839.34;3580097;40;20068;-64
2021/05/25 06:13:42;;;;;;;17.10;13.05;;;;;;;8.75;100.00;100849.56;3578501;40;20037;-65
2021/05/25 06:16:08;;;;;;;18.20;13.50;;;;;;;8.70;100.00;100853.59;3579710;40;20130;-64
2021/05/25 06:18:35;;;;;;;19.02;13.98;;;;;;;8.70;100.00;100856.28;3581157;40;20285;-64
2021/05/25 06:21:02;;;;;;;17.90;13.43;;;;;;;8.60;100.00;100864.25;3580661;40;20082;-63
2021/05/25 06:23:29;;;;;;;18.13;13.63;;;;;;;9.03;100.00;100871.47;3581105;40;20051;-64
2021/05/25 06:25:55;;;;;;;18.80;14.38;;;;;;;9.15;100.00;100864.25;3580421;39;20068;-65
2021/05/25 06:28:21;;;;;;;15.98;12.80;;;;;;;9.37;100.00;100862.47;3580194;39;20044;-64
2021/05/25 06:30:47;;;;;;;18.92;13.07;;;;;;;9.31;100.00;100866.53;3580678;40;20056;-65
2021/05/25 06:33:13;;;;;;;18.70;12.60;;;;;;;9.28;100.00;100862.25;3580639;40;20084;-63
2021/05/25 06:35:39;;;;;;;17.33;12.93;;;;;;;9.08;100.00;100866.59;3580674;40;20060;-63
2021/05/25 06:38:06;;;;;;;21.50;14.63;;;;;;;9.53;100.00;100864.72;3580199;40;20415;-64
2021/05/25 06:40:33;;;;;;;18.85;14.13;;;;;;;9.54;100.00;100867.28;3581099;40;20163;-63
2021/05/25 06:42:59;;;;;;;19.35;13.55;;;;;;;9.73;100.00;100863.91;3579787;40;20394;-63
2021/05/25 06:45:25;;;;;;;27.38;14.02;;;;;;;9.67;100.00;100867.06;3580189;40;20044;-64
2021/05/25 06:47:52;;;;;;;18.58;13.43;;;;;;;9.97;100.00;100860.94;3580609;40;20045;-65
2021/05/25 06:50:18;;;;;;;15.00;12.48;;;;;;;10.33;100.00;100871.31;3581101;40;20048;-64
2021/05/25 06:52:44;;;;;;;17.02;13.73;;;;;;;10.18;100.00;100863.59;3579362;40;20049;-65
2021/05/25 06:55:12;;;;;;;14.52;12.40;;;;;;;10.21;100.00;100859.78;3581125;40;20057;-64
2021/05/25 06:57:38;;;;;;;15.00;12.27;;;;;;;10.15;100.00;100873.78;3580602;40;20057;-63
2021/05/25 07:00:05;;;;;;;16.38;12.48;;;;;;;10.00;100.00;100881.34;3579230;40;20036;-63
2021/05/25 07:02:31;;;;;;;16.40;13.90;;;;;;;9.93;100.00;100885.53;3581278;40;20056;-65
2021/05/25 07:04:58;;;;;;;16.45;13.70;;;;;;;10.02;100.00;100876.66;3581063;40;20138;-65
2021/05/25 07:07:24;;;;;;;16.30;13.80;;;;;;;9.97;100.00;100886.97;3580744;40;20048;-65
2021/05/25 07:09:50;;;;;;;14.82;13.32;;;;;;;10.00;100.00;100892.09;3581609;40;20059;-63
2021/05/25 07:12:17;;;;;;;17.58;12.27;;;;;;;9.96;100.00;100885.25;3581576;40;20134;-63
2021/05/25 07:14:45;;;;;;;15.90;13.02;;;;;;;9.77;100.00;100892.19;3582128;40;20306;-64
2021/05/25 07:17:11;;;;;;;20.42;14.35;;;;;;;9.80;100.00;100885.72;3578856;40;20045;-65
2021/05/25 07:19:37;;;;;;;16.48;12.30;;;;;;;10.00;100.00;100892.09;3578257;40;20088;-64
2021/05/25 07:22:04;;;;;;;15.32;13.30;;;;;;;10.10;100.00;100887.63;3580882;39;20614;-62
2021/05/25 07:24:30;;;;;;;19.40;14.18;;;;;;;10.30;100.00;100887.72;3582048;40;20047;-64
2021/05/25 07:26:56;;;;;;;15.55;13.02;;;;;;;10.27;100.00;100885.31;3582060;40;20368;-63
2021/05/25 07:29:22;;;;;;;18.10;13.77;;;;;;;9.84;100.00;100897.06;3581666;40;20115;-64
2021/05/25 07:31:48;;;;;;;17.73;13.90;;;;;;;9.90;100.00;100883.94;3580066;40;20073;-64
2021/05/25 07:34:14;;;;;;;16.77;14.98;;;;;;;9.56;100.00;100894.03;3580516;40;20085;-64
2021/05/25 07:36:40;;;;;;;17.88;15.93;;;;;;;9.61;100.00;100899.84;3580838;40;20296;-63
2021/05/25 07:39:07;;;;;;;19.67;15.82;;;;;;;9.62;100.00;100904.25;3580195;40;20061;-64
2021/05/25 07:41:34;;;;;;;21.45;17.75;;;;;;;9.76;100.00;100900.38;3580289;40;20142;-64
2021/05/25 07:44:01;;;;;;;18.23;16.33;;;;;;;9.80;100.00;100897.34;3580112;40;20037;-63
2021/05/25 07:46:27;;;;;;;19.42;15.70;;;;;;;9.91;100.00;100899.09;3580529;40;20081;-64
2021/05/25 07:48:54;;;;;;;16.65;14.88;;;;;;;10.15;100.00;100901.50;3581528;40;20056;-63
2021/05/25 07:51:20;;;;;;;19.10;16.08;;;;;;;10.63;100.00;100901.91;3581291;40;20036;-64
2021/05/25 07:53:47;;;;;;;23.13;16.27;;;;;;;10.79;100.00;100901.41;3580845;40;20303;-64
2021/05/25 07:56:14;;;;;;;17.63;14.13;;;;;;;10.99;100.00;100896.94;3579726;40;20051;-63
2021/05/25 07:58:40;;;;;;;16.05;13.70;;;;;;;10.80;100.00;100905.81;3581338;40;20125;-65
2021/05/25 08:01:06;;;;;;;13.50;12.10;;;;;;;11.03;100.00;100901.06;3581034;40;20048;-70
2021/05/25 08:03:32;;;;;;;16.35;13.73;;;;;;;11.16;100.00;100901.66;3580057;40;20052;-63
2021/05/25 08:05:59;;;;;;;13.30;11.75;;;;;;;11.00;100.00;100907.56;3581090;40;20114;-64
2021/05/25 08:08:26;;;;;;;15.73;12.07;;;;;;;11.45;100.00;100900.00;3582259;40;20045;-62
2021/05/25 08:10:52;;;;;;;14.38;12.35;;;;;;;11.51;100.00;100912.91;3580769;40;20045;-64
2021/05/25 08:13:20;;;;;;;14.57;12.27;;;;;;;11.53;100.00;100909.06;3579502;40;20516;-66
2021/05/25 08:15:46;;;;;;;12.50;11.20;;;;;;;11.84;100.00;100908.94;3582314;40;20062;-66
2021/05/25 08:18:19;;;;;;;16.60;10.32;;;;;;;11.84;100.00;100911.63;3581921;40;20628;-63
2021/05/25 08:20:45;;;;;;;12.48;10.00;;;;;;;12.15;100.00;100922.28;3582274;40;20392;-63
2021/05/25 08:23:13;;;;;;;14.77;9.63;;;;;;;11.65;100.00;100917.88;3582304;40;20126;-62
2021/05/25 08:25:41;;;;;;;14.45;8.38;;;;;;;11.46;100.00;100918.72;3581609;40;20480;-66
2021/05/25 08:28:09;;;;;;;11.50;7.95;;;;;;;12.10;100.00;100913.75;3580711;40;20395;-66
2021/05/25 08:30:40;;;;;;;8.70;6.75;;;;;;;12.44;100.00;100907.88;3581498;40;20091;-64
2021/05/25 08:33:06;;;;;;;11.50;5.65;;;;;;;12.51;100.00;100919.75;3580899;39;20418;-65
2021/05/25 08:35:35;;;;;;;12.02;5.35;;;;;;;13.06;100.00;100918.06;3579516;40;20094;-64
2021/05/25 08:38:02;;;;;;;8.77;4.77;;;;;;;12.82;100.00;100911.38;3579923;39;20347;-64
2021/05/25 08:40:30;;;;;;;10.15;4.45;;;;;;;12.97;100.00;100911.75;3579137;39;21210;-67
2021/05/25 08:42:57;;;;;;;7.57;4.30;;;;;;;12.78;100.00;100918.09;3581862;40;20085;-65
2021/05/25 08:45:24;;;;;;;7.93;4.50;;;;;;;12.77;100.00;100913.69;3580908;40;20056;-62
2021/05/25 08:47:52;;;;;;;11.70;4.15;;;;;;;12.55;100.00;100923.84;3582136;40;20063;-64
2021/05/25 08:50:21;;;;;;;8.35;3.92;;;;;;;12.36;100.00;100918.53;3580882;40;20041;-64
2021/05/25 08:52:47;;;;;;;7.13;3.35;;;;;;;12.55;100.00;100913.06;3581895;40;20272;-67
2021/05/25 08:55:14;;;;;;;9.73;3.60;;;;;;;12.55;100.00;100920.31;3579976;40;20311;-66
2021/05/25 08:57:40;;;;;;;9.68;3.45;;;;;;;12.84;100.00;100922.91;3581153;40;20114;-64
2021/05/25 09:00:09;;;;;;;13.70;3.53;;;;;;;12.75;100.00;100923.78;3581248;40;20064;-64
2021/05/25 09:02:35;;;;;;;13.18;3.72;;;;;;;12.41;100.00;100956.72;3581050;40;20037;-64
2021/05/25 09:05:05;;;;;;;8.05;2.53;;;;;;;11.65;100.00;100957.47;3581830;40;20045;-63
2021/05/25 09:10:09;;;;;;;8.65;2.50;;;;;;;11.12;100.00;100950.56;3612572;22;20072;-63
2021/05/25 09:12:38;;;;;;;6.95;2.63;;;;;;;11.16;100.00;100954.66;3591932;39;20044;-62
2021/05/25 09:15:06;;;;;;;8.85;2.47;;;;;;;11.17;100.00;100956.38;3588670;39;20060;-64
2021/05/25 09:17:32;;;;;;;12.25;2.80;;;;;;;11.23;100.00;100958.53;3590518;39;20432;-65
2021/05/25 09:19:59;;;;;;;11.57;2.75;;;;;;;11.17;100.00;100956.38;3590243;39;20373;-65
2021/05/25 09:22:28;;;;;;;8.95;3.03;;;;;;;11.37;100.00;100962.69;3588856;39;20048;-62
2021/05/25 09:24:55;;;;;;;5.43;2.00;;;;;;;11.26;100.00;100963.63;3588456;39;20051;-64
2021/05/25 09:27:29;;;;;;;4.75;2.05;;;;;;;11.05;100.00;100958.34;3589265;39;20144;-63
2021/05/25 09:30:19;;;;;;;5.32;2.00;;;;;;;11.11;100.00;100968.56;3586074;39;20064;-65
2021/05/25 09:32:48;;;;;;;7.75;2.53;;;;;;;11.07;100.00;100972.53;3584117;40;20036;-61
2021/05/25 09:35:15;;;;;;;7.95;2.58;;;;;;;11.26;100.00;100976.25;3591574;39;20056;-65
2021/05/25 09:37:47;;;;;;;7.00;2.40;;;;;;;11.30;100.00;100977.69;3589275;39;20056;-63
2021/05/25 09:40:17;;;;;;;6.72;2.28;;;;;;;11.45;100.00;100981.69;3589484;39;20066;-63
2021/05/25 09:42:43;;;;;;;6.35;2.15;;;;;;;11.51;100.00;100986.56;3588499;39;20080;-63
2021/05/25 09:45:12;;;;;;;6.20;1.85;;;;;;;11.38;100.00;100977.84;3590942;39;20084;-63
2021/05/25 09:47:40;;;;;;;8.25;2.25;;;;;;;11.75;100.00;100977.22;3590654;39;20388;-63
2021/05/25 09:50:08;;;;;;;7.75;2.28;;;;;;;11.78;100.00;100976.94;3590579;39;20060;-63
2021/05/25 09:52:34;;;;;;;6.70;2.20;;;;;;;11.65;100.00;100982.59;3590110;39;20040;-66
2021/05/25 09:55:10;;;;;;;4.75;2.78;;;;;;;11.52;100.00;100982.84;3588809;39;20220;-63
2021/05/25 09:57:41;;;;;;;6.78;2.65;;;;;;;11.76;100.00;100976.19;3587544;39;20357;-62
2021/05/25 10:00:29;;;;;;;6.05;2.60;;;;;;;11.92;100.00;100981.91;3589937;39;20064;-63
2021/05/25 10:03:07;;;;;;;9.63;2.63;;;;;;;12.00;100.00;100980.34;3588810;39;20056;-63
2021/05/25 10:05:33;;;;;;;7.32;2.60;;;;;;;12.11;100.00;100976.66;3589784;39;20047;-63
2021/05/25 10:08:00;;;;;;;8.55;2.88;;;;;;;12.13;100.00;100988.16;3590403;39;20079;-62
2021/05/25 10:10:28;;;;;;;6.85;2.58;;;;;;;12.10;100.00;100986.59;3587989;39;20048;-64
2021/05/25 10:12:55;;;;;;;7.07;2.63;;;;;;;12.14;100.00;100988.00;3588108;39;20063;-65
2021/05/25 10:15:23;;;;;;;5.82;2.67;;;;;;;12.32;100.00;100987.28;3590208;39;20070;-62
2021/05/25 10:18:07;;;;;;;7.80;2.25;;;;;;;12.11;100.00;100982.06;3588710;39;20064;-62
2021/05/25 10:20:33;;;;;;;6.78;1.80;;;;;;;12.25;100.00;100987.88;3588521;39;20048;-64
2021/05/25 10:23:00;;;;;;;6.97;2.70;;;;;;;12.57;100.00;100986.69;3590064;39;20048;-64
2021/05/25 10:25:31;;;;;;;3.90;2.28;;;;;;;12.87;100.00;100987.44;3590247;39;20144;-61
2021/05/25 10:27:57;;;;;;;8.10;1.90;;;;;;;12.91;100.00;100991.53;3586535;39;20310;-62
2021/05/25 10:30:45;;;;;;;5.78;2.42;;;;;;;12.56;100.00;100998.47;3588236;39;20059;-64
2021/05/25 10:33:25;;;;;;;5.57;2.55;;;;;;;12.50;100.00;101004.47;3586481;39;20404;-66
2021/05/25 10:35:54;;;;;;;7.55;2.13;;;;;;;12.42;100.00;101002.47;3588347;39;20084;-62
2021/05/25 10:38:22;;;;;;;6.63;2.43;;;;;;;12.74;100.00;101001.25;3586959;39;20055;-62
2021/05/25 10:40:51;;;;;;;7.45;2.47;;;;;;;13.10;100.00;101011.34;3588326;39;20271;-66
2021/05/25 10:43:43;;;;;;;6.63;2.50;;;;;;;13.76;100.00;101006.75;3589277;39;20382;-64
2021/05/25 10:46:22;;;;;;;6.00;2.30;;;;;;;14.05;100.00;101011.09;3583865;39;20088;-67
2021/05/25 10:49:03;;;;;;;5.53;2.30;;;;;;;13.89;100.00;101001.81;3586800;39;20138;-68
2021/05/25 10:52:12;;;;;;;5.63;1.90;;;;;;;13.47;100.00;101018.59;3597909;39;20051;-65
2021/05/25 10:54:52;;;;;;;;;;;;;;;13.15;100.00;101019.88;3597012;39;20387;-66
2021/05/25 10:57:49;;;;;;;7.35;2.47;;;;;;;13.42;100.00;101026.31;3596626;39;19940;-65
2021/05/25 11:00:29;;;;;;;5.70;2.05;;;;;;;13.96;100.00;101038.06;3592692;39;20044;-67
2021/05/25 11:02:56;;;;;;;;;;;;;;;14.59;100.00;101028.13;3594463;39;20052;-65
2021/05/25 11:07:50;;;;;;;7.93;2.30;;;;;;;14.71;100.00;101035.00;3658675;22;20059;-67
2021/05/25 11:10:37;;;;;;;9.65;2.05;;;;;;;14.98;100.00;101030.44;3591966;39;20048;-67
2021/05/25 11:13:21;;;;;;;6.18;1.65;;;;;;;14.79;100.00;101041.50;3592276;39;20056;-65
2021/05/25 11:16:07;;;;;;;5.05;1.55;;;;;;;14.22;100.00;101040.00;3592851;39;20127;-68
2021/05/25 11:18:36;;;;;;;7.45;1.83;;;;;;;13.86;100.00;101050.81;3592051;39;20055;-66
2021/05/25 11:21:22;;;;;;;4.18;1.70;;;;;;;13.62;100.00;101057.66;3603310;39;20047;-66
2021/05/25 11:23:51;;;;;;;10.35;2.38;;;;;;;13.84;100.00;101058.25;3601355;39;20116;-68
2021/05/25 11:26:54;;;;;;;5.13;2.20;;;;;;;14.08;100.00;101067.63;3602662;39;20054;-67